Time;durP1;ratioP1;P1;durP2;ratioP2;P2;SDS_P1;SDS_P2;PMS_P1;PMS_P2;Temp;Humidity;BMP_temperature;BMP_pressure;BME280_temperature;BME280_humidity;BME280_pressure;Samples;Min_cycle;Max_cycle;Signal;HPM_P1;HPM_P2
2023/01/10 00:00:25;;;;;;;22.55;15.77;;;;;;;;;;5051688;28;20078;-73
2023/01/10 00:02:52;;;;;;;22.52;14.60;;;;;;;;;;5051490;28;20564;-73
2023/01/10 00:05:18;;;;;;;20.48;14.45;;;;;;;;;;5033637;28;20047;-72
2023/01/10 00:07:44;;;;;;;18.92;14.52;;;;;;;;;;5017244;28;20037;-72
2023/01/10 00:10:14;;;;;;;20.67;13.70;;;;;;;;;;5050977;28;20025;-73
2023/01/10 00:15:31;;;;;;;19.13;13.68;;;;;;;;;;5055405;28;20124;-72
2023/01/10 00:18:02;;;;;;;18.33;13.75;;;;;;;;;;5054307;28;20033;-72
2023/01/10 00:20:29;;;;;;;18.38;13.32;;;;;;;;;;5036508;28;20033;-72
2023/01/10 00:22:55;;;;;;;18.98;13.30;;;;;;;;;;5053589;28;20037;-72
2023/01/10 00:25:21;;;;;;;17.83;12.63;;;;;;;;;;5053875;28;20047;-72
2023/01/10 00:27:52;;;;;;;17.27;13.23;;;;;;;;;;5055910;28;20041;-72
2023/01/10 00:30:19;;;;;;;18.75;12.88;;;;;;;;;;5055921;28;20036;-72
2023/01/10 00:32:45;;;;;;;18.00;12.77;;;;;;;;;;5055871;28;20037;-73
2023/01/10 00:35:12;;;;;;;17.38;13.00;;;;;;;;;;5037848;28;20078;-72
2023/01/10 00:37:44;;;;;;;18.95;12.90;;;;;;;;;;5055725;28;20029;-72
2023/01/10 00:40:28;;;;;;;;;;;;;;;;;;;;;
2023/01/10 00:45:56;;;;;;;;;;;;;;;;;;;;;
2023/01/10 00:49:01;;;;;;;;;;;;;;;;;;;;;
2023/01/10 00:55:28;;;;;;;19.58;13.13;;;;;;;;;;5051662;28;20045;-72
2023/01/10 00:59:03;;;;;;;;;;;;;;;;;;;;;
2023/01/10 01:02:36;;;;;;;;;;;;;;;;;;;;;
2023/01/10 01:23:46;;;;;;;18.55;13.23;;;;;;;;;;5033230;28;20040;-72
2023/01/10 01:27:19;;;;;;;;;;;;;;;;;;;;;
2023/01/10 01:30:45;;;;;;;22.45;14.43;;;;;;;;;;4972291;28;20031;-72
2023/01/10 01:33:50;;;;;;;21.02;14.40;;;;;;;;;;5020120;28;20045;-72
2023/01/10 01:36:59;;;;;;;22.65;14.80;;;;;;;;;;5032590;28;20041;-72
2023/01/10 01:39:49;;;;;;;21.92;14.45;;;;;;;;;;5033945;28;20048;-72
2023/01/10 01:42:33;;;;;;;20.85;15.40;;;;;;;;;;5034561;28;20026;-72
2023/01/10 01:45:13;;;;;;;21.67;14.65;;;;;;;;;;5034908;28;20040;-71
2023/01/10 01:48:03;;;;;;;17.83;13.00;;;;;;;;;;5033432;28;20038;-71
2023/01/10 01:54:27;;;;;;;17.15;13.38;;;;;;;;;;5033856;28;20592;-72
2023/01/10 01:57:33;;;;;;;17.15;12.82;;;;;;;;;;5062600;28;20047;-72
2023/01/10 02:04:06;;;;;;;18.73;14.20;;;;;;;;;;5073148;28;20708;-72
2023/01/10 03:20:19;;;;;;;9.38;7.72;;;;;;;;;;5052854;28;20083;-72
2023/01/10 03:22:48;;;;;;;10.45;8.13;;;;;;;;;;5018135;28;20037;-72
2023/01/10 03:25:16;;;;;;;11.30;8.07;;;;;;;;;;5051943;28;20545;-72
2023/01/10 03:27:51;;;;;;;13.27;8.02;;;;;;;;;;5052636;28;20445;-73
2023/01/10 03:30:25;;;;;;;11.70;9.43;;;;;;;;;;5052127;28;20052;-73
2023/01/10 03:33:00;;;;;;;13.55;10.20;;;;;;;;;;5052286;28;20361;-72
2023/01/10 03:35:56;;;;;;;14.82;10.50;;;;;;;;;;5051854;28;20037;-72
2023/01/10 03:38:56;;;;;;;14.13;10.05;;;;;;;;;;5052970;28;20041;-73
2023/01/10 05:05:59;;;;;;;1.77;1.65;;;;;;;;;;5017412;28;20040;-66
2023/01/10 05:08:59;;;;;;;2.58;1.80;;;;;;;;;;5017694;28;20378;-66
2023/01/10 05:11:40;;;;;;;2.10;1.90;;;;;;;;;;5019784;28;20084;-67
2023/01/10 05:14:10;;;;;;;2.63;2.30;;;;;;;;;;5017620;28;20044;-66
2023/01/10 05:16:47;;;;;;;2.72;2.03;;;;;;;;;;5033509;28;20069;-67
2023/01/10 05:19:22;;;;;;;1.90;1.50;;;;;;;;;;5017339;28;20520;-66
2023/01/10 05:21:53;;;;;;;2.20;2.00;;;;;;;;;;5016705;28;20034;-66
2023/01/10 05:24:48;;;;;;;1.75;1.65;;;;;;;;;;5033123;28;20492;-66
2023/01/10 05:27:23;;;;;;;3.03;1.42;;;;;;;;;;5028291;28;20559;-66
2023/01/10 06:22:25;;;;;;;5.05;3.65;;;;;;;;;;5060673;23;20143;-67
2023/01/10 06:25:10;;;;;;;6.25;5.65;;;;;;;;;;5036040;28;20029;-66
2023/01/10 06:27:58;;;;;;;5.75;5.10;;;;;;;;;;5054588;28;20029;-67
2023/01/10 06:30:56;;;;;;;4.45;4.05;;;;;;;;;;5054176;28;20092;-67
2023/01/10 06:33:45;;;;;;;;;;;;;;;;;;;;;
2023/01/10 06:36:48;;;;;;;5.95;5.45;;;;;;;;;;5053848;28;20044;-67
2023/01/10 06:39:47;;;;;;;6.93;4.22;;;;;;;;;;5053299;28;20404;-67
2023/01/10 06:42:45;;;;;;;6.15;3.58;;;;;;;;;;5033649;28;20055;-67
2023/01/10 07:42:45;;;;;;;14.27;9.43;;;;;;;;;;5054928;23;20056;-72
2023/01/10 07:45:10;;;;;;;14.02;9.68;;;;;;;;;;5053659;28;20029;-72
2023/01/10 07:47:35;;;;;;;14.70;9.60;;;;;;;;;;5053617;28;20032;-72
2023/01/10 07:50:13;;;;;;;;;;;;;;;;;;;;;
2023/01/10 07:53:16;;;;;;;24.38;16.42;;;;;;;;;;5052129;28;20029;-72
2023/01/10 07:55:57;;;;;;;18.80;12.60;;;;;;;;;;5052814;28;20045;-72
2023/01/10 07:58:50;;;;;;;13.18;10.68;;;;;;;;;;5053506;28;20493;-72
2023/01/10 08:01:42;;;;;;;;;;;;;;;;;;5036391;28;20503;-72
2023/01/10 08:04:26;;;;;;;12.85;9.73;;;;;;;;;;5052943;28;19909;-72
2023/01/10 08:07:43;;;;;;;13.70;9.98;;;;;;;;;;5050700;28;20044;-72
2023/01/10 08:10:43;;;;;;;15.63;11.02;;;;;;;;;;5031322;28;20037;-72
2023/01/10 08:13:30;;;;;;;11.05;8.27;;;;;;;;;;5053359;28;20039;-72
2023/01/10 08:16:19;;;;;;;;;;;;;;;;;;;;;
2023/01/10 08:19:00;;;;;;;13.23;8.23;;;;;;;;;;5053037;28;20052;-72
2023/01/10 08:21:40;;;;;;;8.88;7.03;;;;;;;;;;5034652;28;20072;-72
2023/01/10 08:24:10;;;;;;;;;;;;;;;;;;5053093;28;20029;-72
2023/01/10 08:26:54;;;;;;;12.18;7.22;;;;;;;;;;5053253;28;19909;-72
2023/01/10 08:29:46;;;;;;;;;;;;;;;;;;5051812;28;20041;-72
2023/01/10 08:32:51;;;;;;;7.85;6.50;;;;;;;;;;5037121;28;20341;-72
2023/01/10 08:35:35;;;;;;;88.15;47.03;;;;;;;;;;5055914;28;20072;-72
2023/01/10 08:38:29;;;;;;;147.50;75.88;;;;;;;;;;5056768;28;20449;-72
2023/01/10 08:41:03;;;;;;;1677.97;768.17;;;;;;;;;;5056479;28;20037;-72
2023/01/10 08:43:52;;;;;;;116.40;87.53;;;;;;;;;;5055962;28;20041;-72
2023/01/10 08:46:38;;;;;;;189.55;83.32;;;;;;;;;;5039085;28;20039;-72
2023/01/10 08:49:14;;;;;;;411.48;187.65;;;;;;;;;;5055917;28;20056;-72
2023/01/10 08:52:11;;;;;;;1494.65;749.80;;;;;;;;;;5056264;28;20041;-72
2023/01/10 08:55:02;;;;;;;201.15;117.68;;;;;;;;;;5046594;28;20037;-72
2023/01/10 08:58:19;;;;;;;44.63;28.48;;;;;;;;;;5053574;28;20076;-67
2023/01/10 09:04:31;;;;;;;44.50;31.90;;;;;;;;;;5022614;28;20041;-67
2023/01/10 09:07:25;;;;;;;31.80;25.85;;;;;;;;;;5055708;28;20048;-67
2023/01/10 09:10:25;;;;;;;23.35;16.17;;;;;;;;;;5039530;28;20121;-67
2023/01/10 09:13:04;;;;;;;26.27;19.00;;;;;;;;;;5020789;28;20120;-66
2023/01/10 09:15:57;;;;;;;26.05;21.02;;;;;;;;;;5055054;28;20045;-66
2023/01/10 09:19:00;;;;;;;24.63;20.20;;;;;;;;;;5036983;28;20037;-67
2023/01/10 09:22:07;;;;;;;14.80;13.20;;;;;;;;;;5039745;28;20048;-66
2023/01/10 09:24:44;;;;;;;5.32;4.35;;;;;;;;;;5037605;28;20448;-66
2023/01/10 09:27:50;;;;;;;20.83;18.63;;;;;;;;;;5039610;28;20133;-67
2023/01/10 09:30:36;;;;;;;9.45;8.50;;;;;;;;;;5055797;28;20033;-67
2023/01/10 09:33:48;;;;;;;9.95;9.00;;;;;;;;;;5055701;28;20358;-67
2023/01/10 09:36:36;;;;;;;19.02;16.85;;;;;;;;;;5037185;28;20061;-66
2023/01/10 09:39:16;;;;;;;12.77;11.57;;;;;;;;;;5037240;28;20047;-67
2023/01/10 09:42:11;;;;;;;12.32;11.15;;;;;;;;;;5016286;28;20046;-67
2023/01/10 09:48:06;;;;;;;4.70;4.15;;;;;;;;;;5032077;28;20071;-67
2023/01/10 09:51:05;;;;;;;4.28;3.88;;;;;;;;;;5033430;28;20041;-67
2023/01/10 09:53:57;;;;;;;3.22;2.97;;;;;;;;;;5035383;28;20034;-66
2023/01/10 09:56:33;;;;;;;4.95;2.25;;;;;;;;;;5033379;28;20049;-66
2023/01/10 10:02:24;;;;;;;1.50;1.40;;;;;;;;;;5026823;28;20076;-66
2023/01/10 10:05:16;;;;;;;2.20;1.42;;;;;;;;;;5033639;28;20039;-67
2023/01/10 10:08:33;;;;;;;1.55;1.30;;;;;;;;;;5034174;28;20037;-66
2023/01/10 10:11:13;;;;;;;2.05;1.48;;;;;;;;;;5014526;28;20045;-66
2023/01/10 10:14:13;;;;;;;4.15;3.13;;;;;;;;;;5034020;28;20063;-67
2023/01/10 10:17:01;;;;;;;2.80;2.30;;;;;;;;;;5033597;28;20420;-67
2023/01/10 10:19:41;;;;;;;2.85;2.20;;;;;;;;;;5033107;28;20041;-66
2023/01/10 10:22:34;;;;;;;2.70;2.50;;;;;;;;;;5016551;28;20128;-72
2023/01/10 10:25:17;;;;;;;2.92;2.58;;;;;;;;;;5033098;28;20077;-72
2023/01/10 10:27:55;;;;;;;2.70;2.42;;;;;;;;;;5032452;28;20037;-72
2023/01/10 10:30:35;;;;;;;4.63;2.70;;;;;;;;;;5033111;28;20049;-72
2023/01/10 10:33:29;;;;;;;6.22;4.20;;;;;;;;;;5034296;28;20040;-72
2023/01/10 10:36:15;;;;;;;16.30;12.13;;;;;;;;;;5016354;28;20052;-72
2023/01/10 10:39:12;;;;;;;6.40;5.68;;;;;;;;;;5034352;28;20033;-72
2023/01/10 10:41:55;;;;;;;6.80;5.07;;;;;;;;;;5038054;28;20400;-72
2023/01/10 10:44:37;;;;;;;7.90;5.97;;;;;;;;;;5035895;28;20040;-72
2023/01/10 10:47:49;;;;;;;7.93;6.57;;;;;;;;;;5053537;28;20052;-72
2023/01/10 10:50:26;;;;;;;7.88;6.90;;;;;;;;;;5035561;28;20120;-72
2023/01/10 10:53:10;;;;;;;;;;;;;;;;;;5054129;28;20032;-72
2023/01/10 10:56:04;;;;;;;9.90;7.85;;;;;;;;;;5054162;28;19909;-72
2023/01/10 10:58:59;;;;;;;10.77;8.63;;;;;;;;;;5035515;28;20037;-72
2023/01/10 11:01:37;;;;;;;9.82;8.50;;;;;;;;;;5053589;28;20040;-72
2023/01/10 11:04:30;;;;;;;11.13;8.60;;;;;;;;;;5034804;28;20543;-72
2023/01/10 11:07:46;;;;;;;10.70;8.60;;;;;;;;;;5039551;28;20554;-72
2023/01/10 11:10:35;;;;;;;11.15;8.45;;;;;;;;;;5035702;28;20579;-72
2023/01/10 11:13:20;;;;;;;12.48;8.50;;;;;;;;;;5053620;28;20396;-72
2023/01/10 11:16:30;;;;;;;10.65;8.23;;;;;;;;;;5053870;28;20044;-72
2023/01/10 11:19:29;;;;;;;;;;;;;;;;;;;;;
2023/01/10 11:22:09;;;;;;;10.23;8.48;;;;;;;;;;5035626;28;20450;-72
2023/01/10 11:25:02;;;;;;;9.82;8.15;;;;;;;;;;5053874;28;20029;-72
2023/01/10 11:27:47;;;;;;;10.30;7.93;;;;;;;;;;5053558;28;20033;-72
2023/01/10 11:30:39;;;;;;;9.55;8.10;;;;;;;;;;5053808;28;20039;-72
2023/01/10 11:33:29;;;;;;;9.35;8.23;;;;;;;;;;5036384;28;20040;-72
2023/01/10 11:36:14;;;;;;;8.88;7.03;;;;;;;;;;5053603;28;20473;-72
2023/01/10 11:39:00;;;;;;;11.50;8.07;;;;;;;;;;5053716;28;20040;-72
2023/01/10 11:41:34;;;;;;;8.20;7.38;;;;;;;;;;5034922;28;20041;-72
2023/01/10 11:44:24;;;;;;;8.70;7.55;;;;;;;;;;5019286;28;20040;-72
2023/01/10 11:47:14;;;;;;;12.90;8.40;;;;;;;;;;5035170;28;20489;-72
2023/01/10 11:49:44;;;;;;;10.88;7.95;;;;;;;;;;5019257;28;20128;-72
2023/01/10 11:55:21;;;;;;;13.60;8.40;;;;;;;;;;5046985;28;19915;-72
2023/01/10 11:58:11;;;;;;;16.30;9.90;;;;;;;;;;5035195;28;20045;-72
2023/01/10 12:00:47;;;;;;;8.55;7.68;;;;;;;;;;5035147;28;20504;-72
2023/01/10 12:03:36;;;;;;;;;;;;;;;;;;;;;
2023/01/10 12:06:04;;;;;;;8.00;7.28;;;;;;;;;;5034950;28;20493;-72
2023/01/10 12:08:37;;;;;;;11.43;7.10;;;;;;;;;;5035688;28;20476;-72
2023/01/10 12:11:11;;;;;;;7.22;6.13;;;;;;;;;;5039031;28;20041;-72
2023/01/10 12:13:48;;;;;;;8.75;6.28;;;;;;;;;;5039233;28;20033;-66
2023/01/10 12:16:29;;;;;;;6.50;5.82;;;;;;;;;;5056031;28;20045;-67
2023/01/10 12:19:14;;;;;;;6.20;5.18;;;;;;;;;;5057167;28;20083;-66
2023/01/10 12:22:05;;;;;;;6.30;5.40;;;;;;;;;;5038601;28;20033;-67
2023/01/10 12:24:47;;;;;;;7.20;5.70;;;;;;;;;;5038749;28;20037;-66
2023/01/10 12:27:35;;;;;;;7.10;6.40;;;;;;;;;;5021818;28;20041;-67
2023/01/10 12:30:35;;;;;;;6.13;5.53;;;;;;;;;;5056689;28;20048;-66
2023/01/10 12:33:09;;;;;;;;;;;;;;;;;;5024015;28;20435;-67
2023/01/10 12:35:57;;;;;;;;;;;;;;;;;;;;;
2023/01/10 12:44:40;;;;;;;6.18;5.57;;;;;;;;;;5056470;28;20044;-66
2023/01/10 12:50:15;;;;;;;5.63;5.13;;;;;;;;;;5035348;28;20044;-66
2023/01/10 12:53:05;;;;;;;5.30;4.80;;;;;;;;;;5056293;28;20041;-66
2023/01/10 12:55:44;;;;;;;6.30;5.15;;;;;;;;;;5038168;28;20041;-66
2023/01/10 12:58:25;;;;;;;5.57;5.07;;;;;;;;;;5056462;28;20049;-66
2023/01/10 13:01:16;;;;;;;5.45;4.93;;;;;;;;;;5021829;28;20029;-66
2023/01/10 13:03:54;;;;;;;7.30;5.55;;;;;;;;;;5056057;28;20040;-66
2023/01/10 13:06:38;;;;;;;5.65;5.15;;;;;;;;;;5038096;28;20119;-66
2023/01/10 13:09:42;;;;;;;6.13;5.15;;;;;;;;;;5037783;28;20037;-67
2023/01/10 13:12:16;;;;;;;5.97;5.38;;;;;;;;;;5016980;28;20073;-66
2023/01/10 13:14:49;;;;;;;5.82;5.22;;;;;;;;;;5055497;28;20033;-66
2023/01/10 13:17:33;;;;;;;5.78;5.18;;;;;;;;;;5038515;28;20071;-66
2023/01/10 13:20:21;;;;;;;5.43;4.93;;;;;;;;;;5055838;28;20033;-66
2023/01/10 13:23:12;;;;;;;5.95;5.32;;;;;;;;;;5055985;28;20028;-66
2023/01/10 13:26:03;;;;;;;6.35;5.75;;;;;;;;;;5021648;28;20111;-67
2023/01/10 13:28:34;;;;;;;6.43;5.82;;;;;;;;;;5038084;28;20036;-66
2023/01/10 13:31:31;;;;;;;5.80;5.30;;;;;;;;;;5038881;28;20044;-66
2023/01/10 13:34:30;;;;;;;5.82;5.32;;;;;;;;;;5055796;28;20068;-66
2023/01/10 13:37:22;;;;;;;5.93;5.32;;;;;;;;;;5055656;28;20037;-66
2023/01/10 13:39:58;;;;;;;6.15;5.60;;;;;;;;;;5055078;28;20571;-67
2023/01/10 13:45:21;;;;;;;6.22;5.63;;;;;;;;;;5055318;28;20083;-66
2023/01/10 13:48:05;;;;;;;6.45;5.68;;;;;;;;;;5053626;28;20041;-66
2023/01/10 13:50:53;;;;;;;6.13;5.55;;;;;;;;;;5037423;28;20041;-66
2023/01/10 13:53:47;;;;;;;6.07;5.50;;;;;;;;;;5055421;28;20116;-66
2023/01/10 13:56:51;;;;;;;6.13;5.50;;;;;;;;;;5036919;28;20048;-66
2023/01/10 14:02:37;;;;;;;6.40;5.15;;;;;;;;;;5036665;28;20462;-66
2023/01/10 14:05:22;;;;;;;5.20;4.38;;;;;;;;;;5055195;28;20033;-66
2023/01/10 14:07:58;;;;;;;6.38;5.30;;;;;;;;;;5054702;28;20048;-66
2023/01/10 14:10:32;;;;;;;6.75;5.32;;;;;;;;;;5036625;28;20124;-67
2023/01/10 14:16:47;;;;;;;5.15;4.72;;;;;;;;;;5318067;22;20060;-63
2023/01/10 14:19:40;;;;;;;5.50;5.00;;;;;;;;;;5159794;22;20061;-70
2023/01/10 14:22:05;;;;;;;5.20;4.70;;;;;;;;;;5050383;28;20044;-70
2023/01/10 14:24:32;;;;;;;5.60;5.07;;;;;;;;;;5054390;28;20033;-70
2023/01/10 14:26:59;;;;;;;4.93;4.53;;;;;;;;;;5019435;28;20029;-69
2023/01/10 14:29:27;;;;;;;5.45;4.95;;;;;;;;;;5035428;28;20044;-69
2023/01/10 14:31:53;;;;;;;5.30;4.80;;;;;;;;;;5035021;28;20075;-65
2023/01/10 14:34:23;;;;;;;6.18;5.32;;;;;;;;;;5035477;28;20036;-70
2023/01/10 14:36:53;;;;;;;5.85;5.25;;;;;;;;;;5026724;28;20518;-71
2023/01/10 14:39:19;;;;;;;6.60;5.95;;;;;;;;;;5050855;22;20081;-69
2023/01/10 14:41:48;;;;;;;7.05;5.95;;;;;;;;;;5029609;28;20152;-69
2023/01/10 14:44:32;;;;;;;6.32;5.72;;;;;;;;;;5043603;23;20089;-69
2023/01/10 14:47:01;;;;;;;5.85;5.32;;;;;;;;;;5049586;28;20037;-69
2023/01/10 14:49:28;;;;;;;6.20;5.32;;;;;;;;;;5015404;28;20036;-69
2023/01/10 14:51:59;;;;;;;7.45;5.78;;;;;;;;;;5050139;28;20037;-69
2023/01/10 14:54:25;;;;;;;6.40;5.80;;;;;;;;;;5049297;28;20041;-69
2023/01/10 14:56:51;;;;;;;5.78;5.22;;;;;;;;;;5049462;28;20399;-69
2023/01/10 14:59:27;;;;;;;6.68;5.72;;;;;;;;;;5049302;28;20040;-69
2023/01/10 15:01:57;;;;;;;6.80;5.50;;;;;;;;;;5049521;28;20443;-69
2023/01/10 15:04:24;;;;;;;7.75;5.53;;;;;;;;;;5031661;28;20029;-69
2023/01/10 15:07:01;;;;;;;6.60;5.63;;;;;;;;;;5028538;28;20815;-69
2023/01/10 15:09:28;;;;;;;6.53;5.88;;;;;;;;;;5029223;28;20084;-69
2023/01/10 15:11:54;;;;;;;6.53;5.75;;;;;;;;;;5012730;28;20045;-69
2023/01/10 15:14:22;;;;;;;7.60;5.90;;;;;;;;;;5030178;28;20124;-69
2023/01/10 15:16:48;;;;;;;6.63;5.53;;;;;;;;;;5010798;28;20045;-69
2023/01/10 15:19:17;;;;;;;7.22;6.30;;;;;;;;;;5029195;28;20029;-69
2023/01/10 15:21:43;;;;;;;7.63;5.63;;;;;;;;;;5011230;28;20405;-69
2023/01/10 15:24:29;;;;;;;6.28;5.68;;;;;;;;;;5029222;28;20131;-69
2023/01/10 15:26:56;;;;;;;9.25;6.90;;;;;;;;;;5028880;28;20049;-69
2023/01/10 15:29:25;;;;;;;8.00;6.63;;;;;;;;;;5029128;28;20049;-69
2023/01/10 15:31:52;;;;;;;6.97;6.00;;;;;;;;;;5029248;28;20034;-69
2023/01/10 15:34:22;;;;;;;6.45;5.85;;;;;;;;;;5010945;28;20038;-69
2023/01/10 15:36:49;;;;;;;7.95;6.25;;;;;;;;;;5028529;28;20045;-72
2023/01/10 15:39:22;;;;;;;7.22;6.53;;;;;;;;;;5011202;28;20037;-71
2023/01/10 15:41:48;;;;;;;7.15;6.45;;;;;;;;;;5010757;28;20125;-70
2023/01/10 15:44:31;;;;;;;7.43;6.35;;;;;;;;;;5030280;28;20535;-70
2023/01/10 15:46:56;;;;;;;7.30;6.57;;;;;;;;;;5031952;28;20042;-70
2023/01/10 15:49:24;;;;;;;8.20;7.00;;;;;;;;;;5032735;28;20060;-71
2023/01/10 15:51:49;;;;;;;7.80;6.93;;;;;;;;;;5015211;28;20042;-71
2023/01/10 15:54:17;;;;;;;7.97;7.18;;;;;;;;;;5032884;28;20555;-71
2023/01/10 15:56:50;;;;;;;10.75;7.85;;;;;;;;;;5031806;28;20138;-71
2023/01/10 15:59:31;;;;;;;9.32;7.60;;;;;;;;;;4998255;28;20041;-71
2023/01/10 16:02:03;;;;;;;8.50;7.43;;;;;;;;;;5032488;28;20550;-71
2023/01/10 16:04:32;;;;;;;10.27;8.55;;;;;;;;;;5032583;28;20042;-71
2023/01/10 16:07:30;;;;;;;9.50;8.07;;;;;;;;;;5014075;28;20037;-71
2023/01/10 16:09:59;;;;;;;9.57;7.75;;;;;;;;;;4977844;28;20049;-71
2023/01/10 16:15:16;;;;;;;9.63;8.68;;;;;;;;;;5031863;28;20068;-71
2023/01/10 16:17:41;;;;;;;;;;;;;;;;;;5032758;28;20138;-71
2023/01/10 16:20:06;;;;;;;8.40;7.43;;;;;;;;;;5014109;28;19913;-71
2023/01/10 16:22:34;;;;;;;9.50;8.18;;;;;;;;;;5031977;28;20268;-72
2023/01/10 16:24:59;;;;;;;9.15;7.78;;;;;;;;;;5032023;28;20462;-71
2023/01/10 16:27:27;;;;;;;9.65;8.68;;;;;;;;;;5031750;28;20053;-71
2023/01/10 16:29:52;;;;;;;9.75;8.77;;;;;;;;;;5031965;28;20067;-71
2023/01/10 16:32:18;;;;;;;9.85;8.85;;;;;;;;;;5031816;28;20060;-71
2023/01/10 16:34:44;;;;;;;9.18;8.27;;;;;;;;;;5013884;28;20033;-69
2023/01/10 16:37:09;;;;;;;9.18;8.27;;;;;;;;;;5032226;28;20096;-69
2023/01/10 16:39:34;;;;;;;10.18;9.15;;;;;;;;;;5032295;28;20041;-70
2023/01/10 16:44:44;;;;;;;10.60;9.32;;;;;;;;;;5031805;28;20049;-69
2023/01/10 16:47:09;;;;;;;10.65;9.10;;;;;;;;;;5031636;28;20038;-71
2023/01/10 16:49:38;;;;;;;10.60;9.57;;;;;;;;;;5014358;28;20473;-69
2023/01/10 16:52:03;;;;;;;9.43;8.52;;;;;;;;;;5032063;28;20056;-69
2023/01/10 16:54:30;;;;;;;17.98;13.55;;;;;;;;;;5013438;28;20116;-71
2023/01/10 16:56:55;;;;;;;13.15;10.40;;;;;;;;;;5013607;28;20037;-70
2023/01/10 16:59:20;;;;;;;24.38;17.63;;;;;;;;;;5031776;28;20140;-70
2023/01/10 17:01:48;;;;;;;18.38;16.10;;;;;;;;;;5031508;28;20523;-70
2023/01/10 17:04:18;;;;;;;13.50;12.10;;;;;;;;;;5031600;28;20045;-70
2023/01/10 17:06:43;;;;;;;12.43;11.13;;;;;;;;;;5031758;28;20449;-70
2023/01/10 17:09:12;;;;;;;13.25;11.85;;;;;;;;;;5013919;28;20048;-70
2023/01/10 17:11:40;;;;;;;14.73;13.03;;;;;;;;;;5012463;28;20448;-70
2023/01/10 17:14:10;;;;;;;13.93;12.43;;;;;;;;;;5030457;28;20041;-70
2023/01/10 17:16:36;;;;;;;13.98;12.48;;;;;;;;;;5029913;28;20033;-70
2023/01/10 17:19:04;;;;;;;14.40;12.23;;;;;;;;;;5030281;28;20392;-70
2023/01/10 17:21:29;;;;;;;14.45;12.23;;;;;;;;;;4995420;28;20042;-70
2023/01/10 17:23:54;;;;;;;14.15;12.65;;;;;;;;;;5030507;28;20045;-70
2023/01/10 17:26:20;;;;;;;17.15;14.32;;;;;;;;;;5029622;28;20558;-70
2023/01/10 17:28:48;;;;;;;17.63;14.02;;;;;;;;;;5030289;28;20034;-70
2023/01/10 17:31:13;;;;;;;28.27;21.25;;;;;;;;;;5030300;28;20125;-70
2023/01/10 17:33:39;;;;;;;18.27;15.52;;;;;;;;;;5012176;28;20105;-70
2023/01/10 17:36:04;;;;;;;16.45;14.00;;;;;;;;;;5029451;28;20091;-70
2023/01/10 17:38:29;;;;;;;16.13;12.75;;;;;;;;;;5029698;28;20065;-70
2023/01/10 17:40:56;;;;;;;15.57;12.35;;;;;;;;;;5029944;28;20103;-69
2023/01/10 17:43:21;;;;;;;16.60;13.55;;;;;;;;;;5030691;28;20580;-67
2023/01/10 17:45:48;;;;;;;17.83;13.82;;;;;;;;;;5012231;28;20148;-70
2023/01/10 17:48:17;;;;;;;18.48;13.30;;;;;;;;;;5030802;28;20119;-70
2023/01/10 17:50:43;;;;;;;16.40;13.68;;;;;;;;;;5012439;28;20539;-69
2023/01/10 17:53:08;;;;;;;17.10;15.27;;;;;;;;;;5012266;28;20547;-69
2023/01/10 17:55:34;;;;;;;18.45;14.52;;;;;;;;;;5011976;28;20033;-69
2023/01/10 17:58:01;;;;;;;14.90;12.77;;;;;;;;;;5030352;28;20045;-64
2023/01/10 18:00:27;;;;;;;17.40;13.60;;;;;;;;;;5030766;28;20033;-65
2023/01/10 18:02:52;;;;;;;18.13;15.90;;;;;;;;;;5030258;28;20448;-65
2023/01/10 18:05:17;;;;;;;20.50;18.30;;;;;;;;;;5029743;28;20125;-65
2023/01/10 18:07:42;;;;;;;22.25;17.40;;;;;;;;;;5029219;28;20049;-65
2023/01/10 18:10:08;;;;;;;25.30;22.55;;;;;;;;;;5030051;28;20042;-65
2023/01/10 18:12:35;;;;;;;20.58;18.35;;;;;;;;;;5029971;28;20384;-64
2023/01/10 18:15:01;;;;;;;24.48;20.77;;;;;;;;;;5012017;28;20037;-65
2023/01/10 18:17:26;;;;;;;18.35;15.35;;;;;;;;;;5029387;28;20116;-65
2023/01/10 18:19:51;;;;;;;24.45;15.25;;;;;;;;;;5011158;28;20133;-65
2023/01/10 18:25:01;;;;;;;15.30;12.95;;;;;;;;;;5011328;28;20120;-65
2023/01/10 18:27:26;;;;;;;18.63;15.55;;;;;;;;;;5027059;28;20140;-64
2023/01/10 18:29:51;;;;;;;24.85;14.30;;;;;;;;;;5026659;28;20099;-64
2023/01/10 18:32:17;;;;;;;29.10;17.08;;;;;;;;;;5028699;28;20041;-65
2023/01/10 18:34:43;;;;;;;23.90;19.52;;;;;;;;;;5029361;28;20061;-64
2023/01/10 18:37:08;;;;;;;40.28;29.02;;;;;;;;;;5010135;28;20107;-65
2023/01/10 18:39:33;;;;;;;88.10;47.80;;;;;;;;;;5028158;28;20102;-65
2023/01/10 18:41:59;;;;;;;47.42;24.30;;;;;;;;;;5029572;28;20373;-65
2023/01/10 18:44:24;;;;;;;72.10;35.92;;;;;;;;;;5026593;28;20117;-66
2023/01/10 18:46:49;;;;;;;78.10;29.70;;;;;;;;;;5026913;28;20045;-65
2023/01/10 18:49:16;;;;;;;40.05;19.45;;;;;;;;;;5026880;28;20538;-65
2023/01/10 18:51:41;;;;;;;90.72;44.30;;;;;;;;;;5026185;28;20045;-65
2023/01/10 18:54:07;;;;;;;86.07;33.47;;;;;;;;;;5026983;28;20400;-65
2023/01/10 18:56:32;;;;;;;53.90;23.27;;;;;;;;;;5028498;28;20065;-65
2023/01/10 18:58:58;;;;;;;141.45;60.53;;;;;;;;;;5028716;28;20490;-65
2023/01/10 19:01:23;;;;;;;104.15;45.20;;;;;;;;;;5010914;28;20041;-65
2023/01/10 19:03:49;;;;;;;86.75;29.35;;;;;;;;;;5029267;28;20480;-64
2023/01/10 19:06:16;;;;;;;102.93;46.80;;;;;;;;;;5028413;28;20026;-66
2023/01/10 19:08:41;;;;;;;66.57;23.40;;;;;;;;;;5028779;28;20037;-65
2023/01/10 19:11:07;;;;;;;35.88;17.95;;;;;;;;;;5028507;28;20037;-65
2023/01/10 19:13:33;;;;;;;57.53;27.13;;;;;;;;;;5028440;28;20499;-65
2023/01/10 19:16:08;;;;;;;34.65;16.38;;;;;;;;;;5028188;28;20041;-65
2023/01/10 19:18:33;;;;;;;93.28;41.30;;;;;;;;;;5027902;28;20146;-65
2023/01/10 19:21:00;;;;;;;37.28;18.33;;;;;;;;;;5028503;28;20177;-65
2023/01/10 19:23:25;;;;;;;42.60;16.65;;;;;;;;;;5028551;28;20045;-65
2023/01/10 19:25:53;;;;;;;54.30;26.70;;;;;;;;;;5026604;28;20040;-65
2023/01/10 19:28:19;;;;;;;26.10;17.33;;;;;;;;;;5011131;28;20076;-65
2023/01/10 19:30:49;;;;;;;29.38;15.23;;;;;;;;;;5028460;28;20139;-65
2023/01/10 19:33:15;;;;;;;;;;;;;;;;;;5028655;28;20038;-65
2023/01/10 19:35:40;;;;;;;28.63;17.42;;;;;;;;;;5027697;28;19920;-65
2023/01/10 19:38:05;;;;;;;21.77;14.20;;;;;;;;;;5028153;28;20033;-65
2023/01/10 19:40:32;;;;;;;25.35;13.75;;;;;;;;;;5028392;28;20041;-65
2023/01/10 19:42:57;;;;;;;34.85;19.90;;;;;;;;;;5028706;28;20029;-65
2023/01/10 19:45:22;;;;;;;25.60;14.80;;;;;;;;;;5027809;28;20055;-65
2023/01/10 19:47:48;;;;;;;20.95;13.32;;;;;;;;;;5027734;28;20093;-66
2023/01/10 19:50:13;;;;;;;26.08;14.27;;;;;;;;;;5028198;28;20048;-65
2023/01/10 19:52:38;;;;;;;20.70;14.07;;;;;;;;;;5010196;28;20052;-66
2023/01/10 19:55:05;;;;;;;29.90;15.27;;;;;;;;;;5027767;28;20522;-65
2023/01/10 19:57:31;;;;;;;18.20;13.68;;;;;;;;;;5028334;28;20042;-65
2023/01/10 19:59:56;;;;;;;23.48;15.68;;;;;;;;;;5029033;28;20374;-65
2023/01/10 20:02:22;;;;;;;24.90;17.67;;;;;;;;;;5029539;28;20038;-66
2023/01/10 20:04:47;;;;;;;24.00;15.63;;;;;;;;;;5010605;28;20488;-65
2023/01/10 20:07:13;;;;;;;25.70;15.85;;;;;;;;;;5028634;28;20041;-65
2023/01/10 20:09:38;;;;;;;18.50;13.52;;;;;;;;;;5028058;28;20051;-66
2023/01/10 20:12:03;;;;;;;19.65;15.40;;;;;;;;;;5010135;28;20120;-66
2023/01/10 20:14:29;;;;;;;23.83;14.80;;;;;;;;;;5027806;28;20150;-66
2023/01/10 20:16:54;;;;;;;19.92;13.88;;;;;;;;;;5027931;28;20026;-66
2023/01/10 20:19:20;;;;;;;19.55;16.60;;;;;;;;;;5028064;28;20038;-66
2023/01/10 20:21:46;;;;;;;19.27;15.10;;;;;;;;;;5028015;28;20080;-67
2023/01/10 20:24:12;;;;;;;14.30;12.38;;;;;;;;;;5027927;28;20065;-66
2023/01/10 20:26:38;;;;;;;17.08;12.63;;;;;;;;;;5028109;28;20041;-67
2023/01/10 20:29:04;;;;;;;17.95;13.85;;;;;;;;;;5027856;28;20057;-66
2023/01/10 20:31:30;;;;;;;22.05;17.35;;;;;;;;;;5031492;28;20084;-66
2023/01/10 20:33:55;;;;;;;22.40;14.60;;;;;;;;;;5031622;28;20092;-66
2023/01/10 20:36:21;;;;;;;19.75;14.45;;;;;;;;;;5031309;28;20171;-66
2023/01/10 20:38:47;;;;;;;18.52;13.00;;;;;;;;;;5013389;28;20041;-66
2023/01/10 20:41:14;;;;;;;18.45;14.73;;;;;;;;;;5031365;28;20065;-66
2023/01/10 20:43:39;;;;;;;17.13;14.50;;;;;;;;;;5031370;28;20113;-67
2023/01/10 20:46:06;;;;;;;16.83;14.27;;;;;;;;;;5030847;28;20084;-66
2023/01/10 20:48:31;;;;;;;14.77;12.38;;;;;;;;;;5031597;28;20057;-66
2023/01/10 20:50:56;;;;;;;14.80;12.50;;;;;;;;;;5013179;28;20038;-66
2023/01/10 20:53:22;;;;;;;14.63;11.93;;;;;;;;;;5031410;28;20036;-67
2023/01/10 20:55:47;;;;;;;15.30;12.52;;;;;;;;;;5030719;28;20459;-66
2023/01/10 20:58:12;;;;;;;16.90;14.30;;;;;;;;;;5030959;28;20056;-66
2023/01/10 21:00:37;;;;;;;18.75;15.48;;;;;;;;;;5031027;28;20040;-66
2023/01/10 21:03:03;;;;;;;19.75;16.77;;;;;;;;;;5031021;28;20386;-66
2023/01/10 21:05:28;;;;;;;24.27;16.90;;;;;;;;;;5030697;28;20448;-66
2023/01/10 21:07:53;;;;;;;19.80;15.60;;;;;;;;;;5030493;28;20400;-66
2023/01/10 21:10:19;;;;;;;18.00;14.23;;;;;;;;;;5012747;28;20118;-67
2023/01/10 21:12:44;;;;;;;17.58;13.82;;;;;;;;;;5034909;28;20073;-64
2023/01/10 21:15:10;;;;;;;19.67;14.82;;;;;;;;;;5034903;28;20038;-71
2023/01/10 21:17:38;;;;;;;17.77;14.88;;;;;;;;;;5035119;28;20033;-70
2023/01/10 21:20:05;;;;;;;19.48;15.15;;;;;;;;;;5034765;28;20452;-71
2023/01/10 21:22:30;;;;;;;21.25;17.25;;;;;;;;;;5016623;28;20128;-71
2023/01/10 21:24:55;;;;;;;24.73;20.63;;;;;;;;;;5034343;28;20500;-74